x

Halibut Bank (46146) Wave Buoy

9:00am - Sat 5th Sep 2015 All times are PDT. -7 hours from GMT.

  • Sig Wave height 1.0ft
  • Peak Period 3s
  • Wind
    2mph, 4mph gusts
  • Sea Temp 60°f
  • 空気 Temp 57°f
  • Sea Pressure 1017.7mb
  • Halibut Bank
  • Halibut Bank

More Historic Weather Station data

Upgrade to MSW Pro to gain access to the past 30 days of data for over 8000 Wavebouys and Weather Stations around the globe.

Join Pro

Comparision Forecast

View Surf forecast
   
Sat 09/05 9:00am 1ft 3s 2 4 mph 1017.7mb 60f 57f
8:00am 1ft 3s 4 7 mph 1017.5mb 59f 56f
7:00am 1.3ft 3s 7
mph
1017.2mb 59f 56f
6:00am 1ft 3s 9 11 mph 1017mb 59f 56f
5:00am 1ft 3s 7 9 mph 1016.6mb 60f 56f
4:00am 0.7ft 3s 9 11 mph 1016.5mb 60f 56f
3:00am 0.7ft 2s 7 9 mph 1016.4mb 60f 58f
2:00am 0.7ft 2s 7
mph
1016.5mb 60f 58f
1:00am 0.7ft 2s 11 13 mph 1016.3mb 60f 58f
12:00am 0.7ft 2s 11 13 mph 1015.9mb 60f 59f
Fri 09/04 11:00pm 0.7ft 3s 11 13 mph 1015.9mb 60f 59f
10:00pm 1ft 3s 11 13 mph 1015.8mb 60f 60f
9:00pm 1ft 3s 11 13 mph 1015.6mb 60f 62f
8:00pm 1ft 3s 11 13 mph 1015.5mb 60f 60f
7:00pm 1.3ft 3s 11 13 mph 1015.5mb 60f 61f
6:00pm 1.3ft 3s 13
mph
1015.4mb 60f 61f
5:00pm 1.3ft 3s 13 18 mph 1015.5mb 60f 60f
4:00pm 1.6ft 4s 13 16 mph 1015.7mb 60f 59f
3:00pm 1.6ft 4s 13 16 mph 1016.1mb 60f 58f
2:00pm 1.6ft 4s 13 16 mph 1016.4mb 60f 57f
1:00pm 1.6ft 4s 13 16 mph 1016.7mb 60f 56f
12:00pm 2ft 4s 16 18 mph 1017.1mb 59f 55f
11:00am 2ft 4s 16 20 mph 1017mb 59f 55f
10:00am 1.6ft 3s 18 22 mph 1016.7mb 58f 55f
9:00am 1.6ft 3s 18 20 mph 1016.9mb 58f 55f
8:00am 1.3ft 3s 18 20 mph 1017.1mb 58f 55f
7:00am 1ft 4s 13 16 mph 1017.1mb 58f 55f
6:00am 1ft 3s 9 11 mph 1017.1mb 59f 55f
5:00am 0.7ft 3s 9 11 mph 1017.2mb 60f 54f
4:00am 0.7ft 3s 9 11 mph 1017mb 59f 54f
3:00am 0.7ft 2s 13
mph
1016.9mb 58f 53f
2:00am 0.7ft 2s 11 16 mph 1017mb 58f 54f
1:00am 0.7ft 2s 11 13 mph 1017.1mb 58f 55f
12:00am 0.7ft 3s 4 7 mph 1017mb 58f 55f
Thu 09/03 11:00pm 0.3ft 5s 4 7 mph 1016.8mb 59f 56f
10:00pm 0.3ft 13s 2 4 mph 1016.7mb 59f 57f
9:00pm 0.3ft 2s 4
mph
1016.4mb 60f 57f
8:00pm 0.3ft 3s 2 4 mph 1016.1mb 61f 56f
7:00pm 0.7ft 3s 4
mph
1016.2mb 61f 57f
6:00pm 0.3ft 6s 4 7 mph 1016.2mb 60f 57f
5:00pm 0.3ft 3s 4 7 mph 1016.1mb 60f 57f
4:00pm 0.7ft 6s 7 9 mph 1016.1mb 60f 57f
3:00pm 0.7ft 2s 7 9 mph 1016mb 58f 56f
2:00pm 1ft 2s 13
mph
1015.8mb 58f 56f
1:00pm 0.7ft 4s 9 13 mph 1015.8mb 58f 56f
12:00pm 0.7ft 2s 4
mph
1016mb 56f 56f
11:00am 0.7ft 4s 7 9 mph 1016mb 56f 54f
10:00am 0.7ft 3s 7 9 mph 1015.8mb 56f 53f
9:00am 0.7ft 3s 4 7 mph 1015.5mb 56f 53f
8:00am 1ft 3s 4 7 mph 1015.4mb 55f 53f
7:00am 0.7ft 3s 4
mph
1015.2mb 55f 53f
6:00am 0.7ft 3s 2
mph
1014.8mb 53f 54f
5:00am 0.7ft 2s 2 4 mph 1014.6mb 53f 54f
4:00am 1ft 3s 4 7 mph 1014.4mb 53f 55f
3:00am 1.3ft 3s 11 13 mph 1013.9mb 54f 54f
2:00am 1.6ft 3s 13 16 mph 1013.4mb 54f 55f
1:00am 2ft 3s 16 18 mph 1013.2mb 54f 55f
12:00am 2.5ft 3s 13 18 mph 1013.1mb 54f 56f
Wed 09/02 11:00pm 2ft 4s 18 20 mph 1012.7mb 54f 56f
10:00pm 2ft 3s 18 22 mph 1012.7mb 55f 56f
9:00pm 2.5ft 3s 18 22 mph 1012.6mb 55f 56f
8:00pm 1.6ft 2s 18 20 mph 1012.3mb 56f 57f
7:00pm 1.3ft 2s 18 20 mph 1012mb 57f 57f
6:00pm 1.3ft 2s 18 20 mph 1012mb 55f 57f
5:00pm 1.6ft 4s 16 18 mph 1011.8mb 54f 56f
4:00pm 1.6ft 4s 11 16 mph 1012mb 54f 56f
3:00pm 1.6ft 4s 9 11 mph 1012.1mb 55f 55f
2:00pm 1.3ft 3s 11 16 mph 1011.3mb 55f 56f
1:00pm 1.3ft 3s 13 20 mph 1011.3mb 55f 56f
12:00pm 1.3ft 3s 13 18 mph 1011.2mb 54f 57f
11:00am 0.7ft 2s 13 16 mph 1011.1mb 54f 56f
10:00am 1.3ft 3s 13
mph
1010.4mb 54f 56f
9:00am 0.7ft 2s 9 16 mph 1010mb 55f 54f
8:00am 0.7ft 2s 13 16 mph 1009.5mb 55f 57f
7:00am 0.3ft 4s 16 18 mph 1009.1mb 55f 56f
6:00am 0.3ft 3s 7 9 mph 1008.7mb 56f 56f
5:00am 0.3ft 3s 4
mph
1008.3mb 57f 56f
4:00am 0.3ft 4s 2 4 mph 1008.2mb 58f 57f
3:00am 0.7ft 2s 2
mph
1007.9mb 55f 57f
2:00am 0.7ft 3s 2
mph
1007.7mb 55f 56f
1:00am 0.7ft 3s 7 9 mph 1007.3mb 55f 56f
12:00am 0.7ft 3s 9 11 mph 1006.8mb 55f 57f
Tue 09/01 11:00pm 1ft 3s 7 9 mph 1006.2mb 55f 57f
10:00pm 1ft 3s 7
mph
1005.9mb 54f 57f
9:00pm 1.3ft 3s 9 13 mph 1005.7mb 54f 58f
8:00pm 1.6ft 4s 11 13 mph 1005.5mb 54f 58f
7:00pm 2ft 3s 13 18 mph 1005.6mb 54f 59f
6:00pm 2ft 3s 16 18 mph 1005.7mb 54f 58f